sensor_id;sensor_type;location;lat;lon;timestamp;P1;durP1;ratioP1;P2;durP2;ratioP2
77040;SDS011;65974;42.664;23.264;2023-06-22T00:03:38;11.50;;;7.20;;
77040;SDS011;65974;42.664;23.264;2023-06-22T00:06:03;11.80;;;7.05;;
77040;SDS011;65974;42.664;23.264;2023-06-22T00:08:28;13.60;;;7.90;;
77040;SDS011;65974;42.664;23.264;2023-06-22T00:10:54;12.05;;;7.30;;
77040;SDS011;65974;42.664;23.264;2023-06-22T00:13:19;12.07;;;7.47;;
77040;SDS011;65974;42.664;23.264;2023-06-22T00:15:45;12.93;;;7.32;;
77040;SDS011;65974;42.664;23.264;2023-06-22T00:18:10;11.68;;;7.95;;
77040;SDS011;65974;42.664;23.264;2023-06-22T00:20:36;15.43;;;8.70;;
77040;SDS011;65974;42.664;23.264;2023-06-22T00:23:02;16.25;;;7.63;;
77040;SDS011;65974;42.664;23.264;2023-06-22T00:25:36;12.93;;;7.95;;
77040;SDS011;65974;42.664;23.264;2023-06-22T00:28:07;15.48;;;8.23;;
77040;SDS011;65974;42.664;23.264;2023-06-22T00:30:33;12.25;;;8.38;;
77040;SDS011;65974;42.664;23.264;2023-06-22T00:32:59;13.60;;;8.23;;
77040;SDS011;65974;42.664;23.264;2023-06-22T00:35:25;17.60;;;8.00;;
77040;SDS011;65974;42.664;23.264;2023-06-22T00:37:58;15.70;;;9.13;;
77040;SDS011;65974;42.664;23.264;2023-06-22T00:40:30;13.27;;;8.65;;
77040;SDS011;65974;42.664;23.264;2023-06-22T00:42:56;11.43;;;8.18;;
77040;SDS011;65974;42.664;23.264;2023-06-22T00:45:25;14.35;;;8.02;;
77040;SDS011;65974;42.664;23.264;2023-06-22T00:47:51;13.68;;;8.10;;
77040;SDS011;65974;42.664;23.264;2023-06-22T00:50:19;11.68;;;8.13;;
77040;SDS011;65974;42.664;23.264;2023-06-22T00:52:56;14.68;;;8.52;;
77040;SDS011;65974;42.664;23.264;2023-06-22T00:55:24;13.93;;;8.25;;
77040;SDS011;65974;42.664;23.264;2023-06-22T00:57:51;12.50;;;7.97;;
77040;SDS011;65974;42.664;23.264;2023-06-22T01:00:21;13.63;;;7.78;;
77040;SDS011;65974;42.664;23.264;2023-06-22T01:02:49;15.05;;;7.80;;
77040;SDS011;65974;42.664;23.264;2023-06-22T01:05:17;11.93;;;7.90;;
77040;SDS011;65974;42.664;23.264;2023-06-22T01:13:45;14.68;;;9.05;;
77040;SDS011;65974;42.664;23.264;2023-06-22T01:18:40;14.43;;;8.32;;
77040;SDS011;65974;42.664;23.264;2023-06-22T01:21:08;13.52;;;8.90;;
77040;SDS011;65974;42.664;23.264;2023-06-22T01:23:58;11.35;;;7.65;;
77040;SDS011;65974;42.664;23.264;2023-06-22T01:26:57;14.05;;;8.48;;
77040;SDS011;65974;42.664;23.264;2023-06-22T01:29:30;14.60;;;9.73;;
77040;SDS011;65974;42.664;23.264;2023-06-22T01:31:58;15.35;;;9.55;;
77040;SDS011;65974;42.664;23.264;2023-06-22T01:34:25;13.70;;;9.40;;
77040;SDS011;65974;42.664;23.264;2023-06-22T01:36:51;11.38;;;8.82;;
77040;SDS011;65974;42.664;23.264;2023-06-22T01:39:17;18.55;;;8.82;;
77040;SDS011;65974;42.664;23.264;2023-06-22T01:41:44;14.63;;;8.43;;
77040;SDS011;65974;42.664;23.264;2023-06-22T01:44:11;14.10;;;9.35;;
77040;SDS011;65974;42.664;23.264;2023-06-22T01:46:37;15.30;;;9.38;;
77040;SDS011;65974;42.664;23.264;2023-06-22T01:49:04;18.02;;;10.18;;
77040;SDS011;65974;42.664;23.264;2023-06-22T01:51:31;15.65;;;9.73;;
77040;SDS011;65974;42.664;23.264;2023-06-22T01:53:56;13.05;;;8.90;;
77040;SDS011;65974;42.664;23.264;2023-06-22T01:56:22;12.68;;;8.50;;
77040;SDS011;65974;42.664;23.264;2023-06-22T01:59:34;12.60;;;8.68;;
77040;SDS011;65974;42.664;23.264;2023-06-22T02:01:57;14.38;;;9.35;;
77040;SDS011;65974;42.664;23.264;2023-06-22T02:04:27;15.02;;;9.63;;
77040;SDS011;65974;42.664;23.264;2023-06-22T02:07:15;19.75;;;11.32;;
77040;SDS011;65974;42.664;23.264;2023-06-22T02:09:44;18.38;;;9.48;;
77040;SDS011;65974;42.664;23.264;2023-06-22T02:12:13;16.75;;;9.90;;
77040;SDS011;65974;42.664;23.264;2023-06-22T02:14:43;12.73;;;9.48;;
77040;SDS011;65974;42.664;23.264;2023-06-22T02:17:11;16.20;;;9.55;;
77040;SDS011;65974;42.664;23.264;2023-06-22T02:19:37;16.67;;;9.23;;
77040;SDS011;65974;42.664;23.264;2023-06-22T02:22:06;18.55;;;9.35;;
77040;SDS011;65974;42.664;23.264;2023-06-22T02:24:31;18.30;;;9.13;;
77040;SDS011;65974;42.664;23.264;2023-06-22T02:26:58;17.95;;;9.80;;
77040;SDS011;65974;42.664;23.264;2023-06-22T02:29:24;24.73;;;10.50;;
77040;SDS011;65974;42.664;23.264;2023-06-22T02:31:50;20.30;;;10.77;;
77040;SDS011;65974;42.664;23.264;2023-06-22T02:34:16;16.35;;;9.63;;
77040;SDS011;65974;42.664;23.264;2023-06-22T02:36:44;16.58;;;9.75;;
77040;SDS011;65974;42.664;23.264;2023-06-22T02:39:17;13.98;;;9.27;;
77040;SDS011;65974;42.664;23.264;2023-06-22T02:41:47;17.92;;;10.52;;
77040;SDS011;65974;42.664;23.264;2023-06-22T02:44:13;15.52;;;9.65;;
77040;SDS011;65974;42.664;23.264;2023-06-22T02:46:39;16.75;;;8.75;;
77040;SDS011;65974;42.664;23.264;2023-06-22T02:49:04;15.48;;;10.10;;
77040;SDS011;65974;42.664;23.264;2023-06-22T02:51:32;12.85;;;8.43;;
77040;SDS011;65974;42.664;23.264;2023-06-22T02:53:59;13.77;;;8.80;;
77040;SDS011;65974;42.664;23.264;2023-06-22T02:56:24;16.95;;;8.18;;
77040;SDS011;65974;42.664;23.264;2023-06-22T02:58:50;14.98;;;8.98;;
77040;SDS011;65974;42.664;23.264;2023-06-22T03:01:16;12.98;;;8.32;;
77040;SDS011;65974;42.664;23.264;2023-06-22T03:03:41;13.73;;;8.38;;
77040;SDS011;65974;42.664;23.264;2023-06-22T03:06:07;16.80;;;8.57;;
77040;SDS011;65974;42.664;23.264;2023-06-22T03:08:32;12.55;;;8.57;;
77040;SDS011;65974;42.664;23.264;2023-06-22T03:10:59;16.33;;;8.68;;
77040;SDS011;65974;42.664;23.264;2023-06-22T03:13:24;13.02;;;8.13;;
77040;SDS011;65974;42.664;23.264;2023-06-22T03:15:50;12.23;;;7.65;;
77040;SDS011;65974;42.664;23.264;2023-06-22T03:18:16;14.98;;;8.98;;
77040;SDS011;65974;42.664;23.264;2023-06-22T03:20:42;15.98;;;9.05;;
77040;SDS011;65974;42.664;23.264;2023-06-22T03:23:07;16.15;;;8.85;;
77040;SDS011;65974;42.664;23.264;2023-06-22T03:25:33;16.90;;;10.00;;
77040;SDS011;65974;42.664;23.264;2023-06-22T03:27:58;17.65;;;10.20;;
77040;SDS011;65974;42.664;23.264;2023-06-22T03:30:26;18.33;;;10.02;;
77040;SDS011;65974;42.664;23.264;2023-06-22T03:32:51;15.20;;;10.05;;
77040;SDS011;65974;42.664;23.264;2023-06-22T03:35:17;14.88;;;9.70;;
77040;SDS011;65974;42.664;23.264;2023-06-22T03:37:42;19.63;;;10.93;;
77040;SDS011;65974;42.664;23.264;2023-06-22T03:40:08;18.80;;;9.68;;
77040;SDS011;65974;42.664;23.264;2023-06-22T03:42:34;16.92;;;10.27;;
77040;SDS011;65974;42.664;23.264;2023-06-22T03:45:01;13.88;;;9.98;;
77040;SDS011;65974;42.664;23.264;2023-06-22T03:47:28;21.17;;;10.02;;
77040;SDS011;65974;42.664;23.264;2023-06-22T03:49:53;16.52;;;9.18;;
77040;SDS011;65974;42.664;23.264;2023-06-22T03:52:20;16.63;;;10.15;;
77040;SDS011;65974;42.664;23.264;2023-06-22T03:54:47;20.80;;;11.80;;
77040;SDS011;65974;42.664;23.264;2023-06-22T03:57:12;16.25;;;10.93;;
77040;SDS011;65974;42.664;23.264;2023-06-22T03:59:38;15.98;;;10.50;;
77040;SDS011;65974;42.664;23.264;2023-06-22T04:02:03;18.75;;;10.68;;
77040;SDS011;65974;42.664;23.264;2023-06-22T04:04:29;17.92;;;11.82;;
77040;SDS011;65974;42.664;23.264;2023-06-22T04:06:54;23.95;;;12.02;;
77040;SDS011;65974;42.664;23.264;2023-06-22T04:09:20;18.42;;;11.93;;
77040;SDS011;65974;42.664;23.264;2023-06-22T04:11:46;19.58;;;10.38;;
77040;SDS011;65974;42.664;23.264;2023-06-22T04:14:12;20.55;;;12.77;;
77040;SDS011;65974;42.664;23.264;2023-06-22T04:16:37;19.00;;;11.65;;
77040;SDS011;65974;42.664;23.264;2023-06-22T04:19:03;21.00;;;10.80;;
77040;SDS011;65974;42.664;23.264;2023-06-22T04:21:28;18.70;;;11.82;;
77040;SDS011;65974;42.664;23.264;2023-06-22T04:23:54;16.67;;;10.20;;
77040;SDS011;65974;42.664;23.264;2023-06-22T04:26:19;20.58;;;11.63;;
77040;SDS011;65974;42.664;23.264;2023-06-22T04:28:47;22.98;;;11.77;;
77040;SDS011;65974;42.664;23.264;2023-06-22T04:31:20;17.10;;;12.15;;
77040;SDS011;65974;42.664;23.264;2023-06-22T04:33:46;22.60;;;12.27;;
77040;SDS011;65974;42.664;23.264;2023-06-22T04:36:11;20.65;;;11.93;;
77040;SDS011;65974;42.664;23.264;2023-06-22T04:38:40;20.75;;;12.07;;
77040;SDS011;65974;42.664;23.264;2023-06-22T04:41:05;18.42;;;12.02;;
77040;SDS011;65974;42.664;23.264;2023-06-22T04:43:33;19.23;;;13.48;;
77040;SDS011;65974;42.664;23.264;2023-06-22T04:45:59;20.00;;;12.77;;
77040;SDS011;65974;42.664;23.264;2023-06-22T04:48:28;17.17;;;11.75;;
77040;SDS011;65974;42.664;23.264;2023-06-22T04:50:58;17.15;;;11.27;;
77040;SDS011;65974;42.664;23.264;2023-06-22T04:53:28;19.30;;;12.45;;
77040;SDS011;65974;42.664;23.264;2023-06-22T04:55:54;21.10;;;13.25;;
77040;SDS011;65974;42.664;23.264;2023-06-22T04:58:20;21.45;;;14.23;;
77040;SDS011;65974;42.664;23.264;2023-06-22T05:00:46;22.58;;;13.45;;
77040;SDS011;65974;42.664;23.264;2023-06-22T05:03:12;21.50;;;13.48;;
77040;SDS011;65974;42.664;23.264;2023-06-22T05:05:38;22.70;;;15.32;;
77040;SDS011;65974;42.664;23.264;2023-06-22T05:08:03;23.08;;;13.75;;
77040;SDS011;65974;42.664;23.264;2023-06-22T05:10:31;25.30;;;13.57;;
77040;SDS011;65974;42.664;23.264;2023-06-22T05:12:57;21.73;;;14.05;;
77040;SDS011;65974;42.664;23.264;2023-06-22T05:15:23;22.67;;;13.80;;
77040;SDS011;65974;42.664;23.264;2023-06-22T05:17:52;24.05;;;13.35;;
77040;SDS011;65974;42.664;23.264;2023-06-22T05:20:18;22.42;;;13.73;;
77040;SDS011;65974;42.664;23.264;2023-06-22T05:22:43;21.40;;;14.95;;
77040;SDS011;65974;42.664;23.264;2023-06-22T05:25:10;22.48;;;14.35;;
77040;SDS011;65974;42.664;23.264;2023-06-22T05:27:36;22.67;;;15.10;;
77040;SDS011;65974;42.664;23.264;2023-06-22T05:30:06;25.10;;;14.75;;
77040;SDS011;65974;42.664;23.264;2023-06-22T05:32:32;21.92;;;15.32;;
77040;SDS011;65974;42.664;23.264;2023-06-22T05:34:58;24.13;;;15.55;;
77040;SDS011;65974;42.664;23.264;2023-06-22T05:37:24;33.15;;;15.30;;
77040;SDS011;65974;42.664;23.264;2023-06-22T05:39:49;23.90;;;14.43;;
77040;SDS011;65974;42.664;23.264;2023-06-22T05:42:15;29.45;;;16.17;;
77040;SDS011;65974;42.664;23.264;2023-06-22T05:44:40;24.52;;;14.85;;
77040;SDS011;65974;42.664;23.264;2023-06-22T05:47:05;23.17;;;13.30;;
77040;SDS011;65974;42.664;23.264;2023-06-22T05:49:31;21.80;;;14.10;;
77040;SDS011;65974;42.664;23.264;2023-06-22T05:51:58;24.23;;;14.30;;
77040;SDS011;65974;42.664;23.264;2023-06-22T05:54:24;25.77;;;14.38;;
77040;SDS011;65974;42.664;23.264;2023-06-22T05:56:50;24.30;;;14.50;;
77040;SDS011;65974;42.664;23.264;2023-06-22T05:59:16;22.58;;;14.27;;
77040;SDS011;65974;42.664;23.264;2023-06-22T06:01:41;26.50;;;16.15;;
77040;SDS011;65974;42.664;23.264;2023-06-22T06:04:06;23.13;;;14.77;;
77040;SDS011;65974;42.664;23.264;2023-06-22T06:06:35;23.08;;;14.13;;
77040;SDS011;65974;42.664;23.264;2023-06-22T06:09:03;22.08;;;15.15;;
77040;SDS011;65974;42.664;23.264;2023-06-22T06:11:29;22.55;;;13.65;;
77040;SDS011;65974;42.664;23.264;2023-06-22T06:13:54;30.50;;;14.77;;
77040;SDS011;65974;42.664;23.264;2023-06-22T06:16:20;27.90;;;14.85;;
77040;SDS011;65974;42.664;23.264;2023-06-22T06:18:45;23.63;;;14.50;;
77040;SDS011;65974;42.664;23.264;2023-06-22T06:21:11;20.27;;;13.65;;
77040;SDS011;65974;42.664;23.264;2023-06-22T06:23:36;20.05;;;13.55;;
77040;SDS011;65974;42.664;23.264;2023-06-22T06:26:02;28.90;;;13.50;;
77040;SDS011;65974;42.664;23.264;2023-06-22T06:28:31;23.20;;;13.57;;
77040;SDS011;65974;42.664;23.264;2023-06-22T06:30:57;21.73;;;13.60;;
77040;SDS011;65974;42.664;23.264;2023-06-22T06:33:22;22.00;;;14.90;;
77040;SDS011;65974;42.664;23.264;2023-06-22T06:35:49;25.48;;;14.40;;
77040;SDS011;65974;42.664;23.264;2023-06-22T06:38:15;25.58;;;15.10;;
77040;SDS011;65974;42.664;23.264;2023-06-22T06:40:40;23.23;;;12.57;;
77040;SDS011;65974;42.664;23.264;2023-06-22T06:43:06;16.77;;;12.88;;
77040;SDS011;65974;42.664;23.264;2023-06-22T06:45:32;23.55;;;14.15;;
77040;SDS011;65974;42.664;23.264;2023-06-22T06:47:59;22.58;;;14.32;;
77040;SDS011;65974;42.664;23.264;2023-06-22T06:50:25;22.83;;;13.85;;
77040;SDS011;65974;42.664;23.264;2023-06-22T06:52:50;21.23;;;13.07;;
77040;SDS011;65974;42.664;23.264;2023-06-22T06:55:16;28.80;;;16.73;;
77040;SDS011;65974;42.664;23.264;2023-06-22T06:57:42;27.63;;;14.52;;
77040;SDS011;65974;42.664;23.264;2023-06-22T07:00:10;19.25;;;13.35;;
77040;SDS011;65974;42.664;23.264;2023-06-22T07:02:41;21.80;;;13.50;;
77040;SDS011;65974;42.664;23.264;2023-06-22T07:05:08;25.35;;;14.27;;
77040;SDS011;65974;42.664;23.264;2023-06-22T07:07:34;19.20;;;13.18;;
77040;SDS011;65974;42.664;23.264;2023-06-22T07:09:59;19.42;;;13.52;;
77040;SDS011;65974;42.664;23.264;2023-06-22T07:12:25;20.85;;;14.35;;
77040;SDS011;65974;42.664;23.264;2023-06-22T07:14:51;17.95;;;12.60;;
77040;SDS011;65974;42.664;23.264;2023-06-22T07:17:17;19.40;;;13.15;;
77040;SDS011;65974;42.664;23.264;2023-06-22T07:19:43;23.60;;;13.73;;
77040;SDS011;65974;42.664;23.264;2023-06-22T07:22:08;15.75;;;12.27;;
77040;SDS011;65974;42.664;23.264;2023-06-22T07:24:33;20.77;;;12.88;;
77040;SDS011;65974;42.664;23.264;2023-06-22T07:26:59;22.45;;;14.38;;
77040;SDS011;65974;42.664;23.264;2023-06-22T07:29:25;21.63;;;12.60;;
77040;SDS011;65974;42.664;23.264;2023-06-22T07:31:51;21.42;;;13.50;;
77040;SDS011;65974;42.664;23.264;2023-06-22T07:34:17;19.40;;;13.40;;
77040;SDS011;65974;42.664;23.264;2023-06-22T07:36:44;20.02;;;13.25;;
77040;SDS011;65974;42.664;23.264;2023-06-22T07:39:09;20.02;;;14.32;;
77040;SDS011;65974;42.664;23.264;2023-06-22T07:41:35;21.70;;;13.25;;
77040;SDS011;65974;42.664;23.264;2023-06-22T07:44:01;17.58;;;13.73;;
77040;SDS011;65974;42.664;23.264;2023-06-22T07:46:27;20.48;;;13.52;;
77040;SDS011;65974;42.664;23.264;2023-06-22T07:48:55;24.38;;;15.57;;
77040;SDS011;65974;42.664;23.264;2023-06-22T07:51:21;20.95;;;14.60;;
77040;SDS011;65974;42.664;23.264;2023-06-22T07:53:46;21.95;;;14.27;;
77040;SDS011;65974;42.664;23.264;2023-06-22T07:56:12;19.23;;;14.43;;
77040;SDS011;65974;42.664;23.264;2023-06-22T07:58:38;19.67;;;12.90;;
77040;SDS011;65974;42.664;23.264;2023-06-22T08:01:04;20.35;;;13.70;;
77040;SDS011;65974;42.664;23.264;2023-06-22T08:03:31;26.95;;;14.98;;
77040;SDS011;65974;42.664;23.264;2023-06-22T08:05:57;26.17;;;14.65;;
77040;SDS011;65974;42.664;23.264;2023-06-22T08:08:23;22.30;;;14.38;;
77040;SDS011;65974;42.664;23.264;2023-06-22T08:10:48;20.98;;;14.40;;
77040;SDS011;65974;42.664;23.264;2023-06-22T08:13:14;24.35;;;14.27;;
77040;SDS011;65974;42.664;23.264;2023-06-22T08:15:39;21.80;;;15.00;;
77040;SDS011;65974;42.664;23.264;2023-06-22T08:18:05;20.35;;;15.02;;
77040;SDS011;65974;42.664;23.264;2023-06-22T08:20:30;20.48;;;13.43;;
77040;SDS011;65974;42.664;23.264;2023-06-22T08:22:56;20.48;;;13.05;;
77040;SDS011;65974;42.664;23.264;2023-06-22T08:25:23;18.50;;;13.75;;
77040;SDS011;65974;42.664;23.264;2023-06-22T08:27:48;33.65;;;15.07;;
77040;SDS011;65974;42.664;23.264;2023-06-22T08:30:14;22.20;;;13.75;;
77040;SDS011;65974;42.664;23.264;2023-06-22T08:32:40;19.90;;;13.18;;
77040;SDS011;65974;42.664;23.264;2023-06-22T08:35:05;20.30;;;14.68;;
77040;SDS011;65974;42.664;23.264;2023-06-22T08:37:33;18.65;;;13.25;;
77040;SDS011;65974;42.664;23.264;2023-06-22T08:40:00;20.23;;;14.52;;
77040;SDS011;65974;42.664;23.264;2023-06-22T08:42:26;16.80;;;12.93;;
77040;SDS011;65974;42.664;23.264;2023-06-22T08:44:52;19.40;;;13.10;;
77040;SDS011;65974;42.664;23.264;2023-06-22T08:47:18;21.75;;;13.60;;
77040;SDS011;65974;42.664;23.264;2023-06-22T08:49:44;18.77;;;13.00;;
77040;SDS011;65974;42.664;23.264;2023-06-22T08:52:10;20.63;;;13.50;;
77040;SDS011;65974;42.664;23.264;2023-06-22T08:54:35;19.27;;;13.63;;
77040;SDS011;65974;42.664;23.264;2023-06-22T08:57:01;19.85;;;13.75;;
77040;SDS011;65974;42.664;23.264;2023-06-22T08:59:27;18.90;;;12.85;;
77040;SDS011;65974;42.664;23.264;2023-06-22T09:01:53;17.00;;;12.73;;
77040;SDS011;65974;42.664;23.264;2023-06-22T09:04:18;15.65;;;12.02;;
77040;SDS011;65974;42.664;23.264;2023-06-22T09:06:47;16.48;;;11.15;;
77040;SDS011;65974;42.664;23.264;2023-06-22T09:09:13;16.15;;;10.27;;
77040;SDS011;65974;42.664;23.264;2023-06-22T09:11:39;14.40;;;10.25;;
77040;SDS011;65974;42.664;23.264;2023-06-22T09:14:05;13.52;;;10.30;;
77040;SDS011;65974;42.664;23.264;2023-06-22T09:16:31;14.25;;;9.27;;
77040;SDS011;65974;42.664;23.264;2023-06-22T09:18:57;17.42;;;11.60;;
77040;SDS011;65974;42.664;23.264;2023-06-22T09:21:22;14.88;;;10.73;;
77040;SDS011;65974;42.664;23.264;2023-06-22T09:23:48;17.52;;;11.65;;
77040;SDS011;65974;42.664;23.264;2023-06-22T09:26:16;18.23;;;11.52;;
77040;SDS011;65974;42.664;23.264;2023-06-22T09:28:45;16.98;;;11.15;;
77040;SDS011;65974;42.664;23.264;2023-06-22T09:31:11;16.42;;;11.63;;
77040;SDS011;65974;42.664;23.264;2023-06-22T09:33:37;14.27;;;11.57;;
77040;SDS011;65974;42.664;23.264;2023-06-22T09:36:06;17.90;;;10.98;;
77040;SDS011;65974;42.664;23.264;2023-06-22T09:38:34;15.70;;;10.82;;
77040;SDS011;65974;42.664;23.264;2023-06-22T09:41:01;17.30;;;11.23;;
77040;SDS011;65974;42.664;23.264;2023-06-22T09:43:26;15.07;;;10.90;;
77040;SDS011;65974;42.664;23.264;2023-06-22T09:45:52;16.83;;;10.93;;
77040;SDS011;65974;42.664;23.264;2023-06-22T09:48:18;15.02;;;10.23;;
77040;SDS011;65974;42.664;23.264;2023-06-22T09:50:43;13.82;;;10.05;;
77040;SDS011;65974;42.664;23.264;2023-06-22T09:53:09;14.05;;;10.27;;
77040;SDS011;65974;42.664;23.264;2023-06-22T09:55:34;15.82;;;10.80;;
77040;SDS011;65974;42.664;23.264;2023-06-22T09:58:00;16.55;;;10.93;;
77040;SDS011;65974;42.664;23.264;2023-06-22T10:00:25;15.18;;;12.00;;
77040;SDS011;65974;42.664;23.264;2023-06-22T10:02:51;13.90;;;9.70;;
77040;SDS011;65974;42.664;23.264;2023-06-22T10:05:17;13.95;;;10.27;;
77040;SDS011;65974;42.664;23.264;2023-06-22T10:07:42;13.88;;;10.55;;
77040;SDS011;65974;42.664;23.264;2023-06-22T10:10:09;14.55;;;10.15;;
77040;SDS011;65974;42.664;23.264;2023-06-22T10:12:36;14.32;;;10.45;;
77040;SDS011;65974;42.664;23.264;2023-06-22T10:15:02;16.05;;;10.45;;
77040;SDS011;65974;42.664;23.264;2023-06-22T10:17:28;13.55;;;9.85;;
77040;SDS011;65974;42.664;23.264;2023-06-22T10:19:53;15.68;;;10.63;;
77040;SDS011;65974;42.664;23.264;2023-06-22T10:22:18;14.07;;;9.82;;
77040;SDS011;65974;42.664;23.264;2023-06-22T10:24:44;14.38;;;11.18;;
77040;SDS011;65974;42.664;23.264;2023-06-22T10:27:11;18.55;;;13.02;;
77040;SDS011;65974;42.664;23.264;2023-06-22T10:29:36;16.05;;;10.07;;
77040;SDS011;65974;42.664;23.264;2023-06-22T10:32:02;14.77;;;10.38;;
77040;SDS011;65974;42.664;23.264;2023-06-22T10:34:28;15.15;;;10.65;;
77040;SDS011;65974;42.664;23.264;2023-06-22T10:36:55;18.58;;;10.70;;
77040;SDS011;65974;42.664;23.264;2023-06-22T10:39:20;14.07;;;11.13;;
77040;SDS011;65974;42.664;23.264;2023-06-22T10:41:45;14.07;;;10.13;;
77040;SDS011;65974;42.664;23.264;2023-06-22T10:44:11;15.88;;;10.63;;
77040;SDS011;65974;42.664;23.264;2023-06-22T10:46:37;14.30;;;11.13;;
77040;SDS011;65974;42.664;23.264;2023-06-22T10:49:02;16.05;;;10.40;;
77040;SDS011;65974;42.664;23.264;2023-06-22T10:51:28;14.57;;;10.32;;
77040;SDS011;65974;42.664;23.264;2023-06-22T10:53:54;15.20;;;11.35;;
77040;SDS011;65974;42.664;23.264;2023-06-22T10:56:19;17.85;;;11.68;;
77040;SDS011;65974;42.664;23.264;2023-06-22T10:58:45;14.73;;;11.23;;
77040;SDS011;65974;42.664;23.264;2023-06-22T11:01:11;13.88;;;10.80;;
77040;SDS011;65974;42.664;23.264;2023-06-22T11:03:36;17.10;;;11.73;;
77040;SDS011;65974;42.664;23.264;2023-06-22T11:06:02;15.35;;;11.60;;
77040;SDS011;65974;42.664;23.264;2023-06-22T11:08:27;14.65;;;11.93;;
77040;SDS011;65974;42.664;23.264;2023-06-22T11:10:53;13.90;;;11.63;;
77040;SDS011;65974;42.664;23.264;2023-06-22T11:13:18;15.95;;;11.45;;
77040;SDS011;65974;42.664;23.264;2023-06-22T11:15:43;19.55;;;11.45;;
77040;SDS011;65974;42.664;23.264;2023-06-22T11:18:09;18.15;;;11.15;;
77040;SDS011;65974;42.664;23.264;2023-06-22T11:20:35;13.77;;;11.05;;
77040;SDS011;65974;42.664;23.264;2023-06-22T11:23:04;15.77;;;10.52;;
77040;SDS011;65974;42.664;23.264;2023-06-22T11:25:30;16.98;;;10.90;;
77040;SDS011;65974;42.664;23.264;2023-06-22T11:27:56;17.25;;;12.90;;
77040;SDS011;65974;42.664;23.264;2023-06-22T11:30:21;16.13;;;11.65;;
77040;SDS011;65974;42.664;23.264;2023-06-22T11:32:48;16.38;;;10.77;;
77040;SDS011;65974;42.664;23.264;2023-06-22T11:35:13;16.10;;;11.65;;
77040;SDS011;65974;42.664;23.264;2023-06-22T11:37:39;18.48;;;12.45;;
77040;SDS011;65974;42.664;23.264;2023-06-22T11:40:04;18.98;;;11.82;;
77040;SDS011;65974;42.664;23.264;2023-06-22T11:42:33;17.45;;;12.15;;
77040;SDS011;65974;42.664;23.264;2023-06-22T11:44:59;15.27;;;11.95;;
77040;SDS011;65974;42.664;23.264;2023-06-22T11:47:24;16.38;;;11.77;;
77040;SDS011;65974;42.664;23.264;2023-06-22T11:49:50;15.23;;;11.70;;
77040;SDS011;65974;42.664;23.264;2023-06-22T11:52:15;19.10;;;12.55;;
77040;SDS011;65974;42.664;23.264;2023-06-22T11:54:42;20.48;;;13.65;;
77040;SDS011;65974;42.664;23.264;2023-06-22T11:57:08;18.38;;;13.07;;
77040;SDS011;65974;42.664;23.264;2023-06-22T11:59:34;20.80;;;12.52;;
77040;SDS011;65974;42.664;23.264;2023-06-22T12:01:59;18.77;;;11.93;;
77040;SDS011;65974;42.664;23.264;2023-06-22T12:04:25;16.27;;;12.25;;
77040;SDS011;65974;42.664;23.264;2023-06-22T12:06:50;16.33;;;11.82;;
77040;SDS011;65974;42.664;23.264;2023-06-22T12:09:15;17.27;;;12.98;;
77040;SDS011;65974;42.664;23.264;2023-06-22T12:11:41;16.75;;;12.35;;
77040;SDS011;65974;42.664;23.264;2023-06-22T12:14:06;19.73;;;13.82;;
77040;SDS011;65974;42.664;23.264;2023-06-22T12:16:32;18.35;;;13.07;;
77040;SDS011;65974;42.664;23.264;2023-06-22T12:18:57;20.17;;;13.68;;
77040;SDS011;65974;42.664;23.264;2023-06-22T12:21:23;20.92;;;13.73;;
77040;SDS011;65974;42.664;23.264;2023-06-22T12:23:48;20.45;;;12.45;;
77040;SDS011;65974;42.664;23.264;2023-06-22T12:26:14;14.93;;;10.88;;
77040;SDS011;65974;42.664;23.264;2023-06-22T12:28:39;16.67;;;11.05;;
77040;SDS011;65974;42.664;23.264;2023-06-22T12:31:05;18.77;;;11.35;;
77040;SDS011;65974;42.664;23.264;2023-06-22T12:33:30;21.05;;;11.40;;
77040;SDS011;65974;42.664;23.264;2023-06-22T12:35:56;19.67;;;12.27;;
77040;SDS011;65974;42.664;23.264;2023-06-22T12:38:21;19.23;;;11.10;;
77040;SDS011;65974;42.664;23.264;2023-06-22T12:40:47;21.83;;;12.25;;
77040;SDS011;65974;42.664;23.264;2023-06-22T12:43:14;21.23;;;11.82;;
77040;SDS011;65974;42.664;23.264;2023-06-22T12:45:40;21.13;;;12.27;;
77040;SDS011;65974;42.664;23.264;2023-06-22T12:48:05;15.50;;;10.57;;
77040;SDS011;65974;42.664;23.264;2023-06-22T12:50:31;18.00;;;11.10;;
77040;SDS011;65974;42.664;23.264;2023-06-22T12:52:56;17.23;;;10.15;;
77040;SDS011;65974;42.664;23.264;2023-06-22T12:55:22;16.23;;;9.38;;
77040;SDS011;65974;42.664;23.264;2023-06-22T12:57:48;20.67;;;10.27;;
77040;SDS011;65974;42.664;23.264;2023-06-22T13:00:13;18.35;;;9.60;;
77040;SDS011;65974;42.664;23.264;2023-06-22T13:02:39;22.67;;;11.38;;
77040;SDS011;65974;42.664;23.264;2023-06-22T13:05:04;17.13;;;11.35;;
77040;SDS011;65974;42.664;23.264;2023-06-22T13:07:30;17.17;;;11.73;;
77040;SDS011;65974;42.664;23.264;2023-06-22T13:09:55;18.00;;;11.13;;
77040;SDS011;65974;42.664;23.264;2023-06-22T13:12:21;15.00;;;9.65;;
77040;SDS011;65974;42.664;23.264;2023-06-22T13:14:46;16.77;;;9.02;;
77040;SDS011;65974;42.664;23.264;2023-06-22T13:17:12;16.35;;;8.43;;
77040;SDS011;65974;42.664;23.264;2023-06-22T13:19:39;15.05;;;7.38;;
77040;SDS011;65974;42.664;23.264;2023-06-22T13:22:04;17.45;;;8.63;;
77040;SDS011;65974;42.664;23.264;2023-06-22T13:24:30;12.35;;;7.65;;
77040;SDS011;65974;42.664;23.264;2023-06-22T13:26:56;14.18;;;8.50;;
77040;SDS011;65974;42.664;23.264;2023-06-22T13:29:21;12.90;;;8.60;;
77040;SDS011;65974;42.664;23.264;2023-06-22T13:31:47;12.57;;;8.40;;
77040;SDS011;65974;42.664;23.264;2023-06-22T13:34:12;16.38;;;9.13;;
77040;SDS011;65974;42.664;23.264;2023-06-22T13:36:37;18.02;;;8.88;;
77040;SDS011;65974;42.664;23.264;2023-06-22T13:39:03;16.02;;;10.15;;
77040;SDS011;65974;42.664;23.264;2023-06-22T13:41:29;15.57;;;10.35;;
77040;SDS011;65974;42.664;23.264;2023-06-22T13:43:54;18.63;;;8.55;;
77040;SDS011;65974;42.664;23.264;2023-06-22T13:46:20;13.30;;;8.38;;
77040;SDS011;65974;42.664;23.264;2023-06-22T13:48:45;17.35;;;9.60;;
77040;SDS011;65974;42.664;23.264;2023-06-22T13:51:11;15.57;;;10.10;;
77040;SDS011;65974;42.664;23.264;2023-06-22T13:53:36;18.65;;;10.52;;
77040;SDS011;65974;42.664;23.264;2023-06-22T13:56:02;18.00;;;10.27;;
77040;SDS011;65974;42.664;23.264;2023-06-22T13:58:28;25.48;;;12.45;;
77040;SDS011;65974;42.664;23.264;2023-06-22T14:00:54;24.35;;;12.20;;
77040;SDS011;65974;42.664;23.264;2023-06-22T14:03:19;18.73;;;10.80;;
77040;SDS011;65974;42.664;23.264;2023-06-22T14:05:44;15.48;;;10.40;;
77040;SDS011;65974;42.664;23.264;2023-06-22T14:08:10;15.60;;;9.93;;
77040;SDS011;65974;42.664;23.264;2023-06-22T14:10:36;16.95;;;9.90;;
77040;SDS011;65974;42.664;23.264;2023-06-22T14:13:02;15.07;;;9.65;;
77040;SDS011;65974;42.664;23.264;2023-06-22T14:15:27;26.23;;;11.55;;
77040;SDS011;65974;42.664;23.264;2023-06-22T14:17:53;17.98;;;10.27;;
77040;SDS011;65974;42.664;23.264;2023-06-22T14:20:18;17.23;;;10.43;;